Time;durP1;ratioP1;P1;durP2;ratioP2;P2;SDS_P1;SDS_P2;PMS_P1;PMS_P2;Temp;Humidity;BMP_temperature;BMP_pressure;BME280_temperature;BME280_humidity;BME280_pressure;Samples;Min_cycle;Max_cycle;Signal;HPM_P1;HPM_P2
2023/10/25 00:01:26;;;;;;;;;;;6.50;99.90;;;;;;5011638;28;19932;-72
2023/10/25 00:03:53;;;;;;;;;;;6.50;99.90;;;;;;5011624;28;20399;-72
2023/10/25 00:06:19;;;;;;;;;;;6.50;99.90;;;;;;5011530;28;19933;-72
2023/10/25 00:08:47;;;;;;;;;;;6.50;99.90;;;;;;5010756;28;20418;-72
2023/10/25 00:11:13;;;;;;;;;;;6.50;99.90;;;;;;5007423;28;19941;-72
2023/10/25 00:13:40;;;;;;;;;;;6.60;99.90;;;;;;5006614;28;19929;-72
2023/10/25 00:16:06;;;;;;;;;;;6.60;99.90;;;;;;5006807;28;19930;-72
2023/10/25 00:18:33;;;;;;;;;;;6.70;99.90;;;;;;5006572;28;19929;-72
2023/10/25 00:20:59;;;;;;;;;;;6.70;99.90;;;;;;5006310;28;20362;-72
2023/10/25 00:23:26;;;;;;;;;;;6.70;99.90;;;;;;5008623;28;19929;-72
2023/10/25 00:25:54;;;;;;;;;;;6.80;99.90;;;;;;5010281;28;19933;-72
2023/10/25 00:28:20;;;;;;;;;;;6.80;99.90;;;;;;5010905;28;19940;-72
2023/10/25 00:30:47;;;;;;;;;;;6.80;99.90;;;;;;5006236;28;19933;-72
2023/10/25 00:33:13;;;;;;;;;;;6.90;99.90;;;;;;5007356;28;20001;-72
2023/10/25 00:35:40;;;;;;;;;;;6.90;99.90;;;;;;5005229;28;20450;-72
2023/10/25 00:38:06;;;;;;;;;;;6.90;99.90;;;;;;5005872;28;19929;-72
2023/10/25 00:40:33;;;;;;;;;;;7.00;99.90;;;;;;5006259;28;19991;-72
2023/10/25 00:43:15;;;;;;;;;;;7.00;99.90;;;;;;5009721;28;19925;-72
2023/10/25 00:45:47;;;;;;;;;;;7.00;99.90;;;;;;5008026;28;20417;-72
2023/10/25 00:48:14;;;;;;;;;;;7.10;99.90;;;;;;5006137;28;19925;-72
2023/10/25 00:50:41;;;;;;;;;;;7.10;99.90;;;;;;5006135;28;19925;-72
2023/10/25 00:53:07;;;;;;;;;;;7.10;99.90;;;;;;5005969;28;20281;-72
2023/10/25 00:55:34;;;;;;;;;;;7.10;99.90;;;;;;5006070;28;19929;-72
2023/10/25 00:58:00;;;;;;;;;;;7.20;99.90;;;;;;5006310;28;19979;-72
2023/10/25 01:00:28;;;;;;;;;;;7.20;99.90;;;;;;5005787;28;19929;-72
2023/10/25 01:02:55;;;;;;;;;;;7.20;99.90;;;;;;5006922;28;19929;-72
2023/10/25 01:05:21;;;;;;;;;;;7.20;99.90;;;;;;5005161;28;20293;-72
2023/10/25 01:07:49;;;;;;;;;;;7.20;99.90;;;;;;5006451;28;19930;-72
2023/10/25 01:10:15;;;;;;;;;;;7.20;99.90;;;;;;5006200;28;19925;-72
2023/10/25 01:12:42;;;;;;;;;;;7.20;99.90;;;;;;5005878;28;19930;-72
2023/10/25 01:15:12;;;;;;;;;;;7.30;99.90;;;;;;5006287;28;19926;-72
2023/10/25 01:17:40;;;;;;;;;;;7.20;99.90;;;;;;5005283;28;19933;-72
2023/10/25 01:20:07;;;;;;;;;;;7.30;99.90;;;;;;5006060;28;19925;-72
2023/10/25 01:22:35;;;;;;;;;;;7.20;99.90;;;;;;5006111;28;19930;-72
2023/10/25 01:25:01;;;;;;;;;;;7.20;99.90;;;;;;5006326;28;19929;-72
2023/10/25 01:27:27;;;;;;;;;;;7.10;99.90;;;;;;5006007;28;19976;-72
2023/10/25 01:29:54;;;;;;;;;;;7.10;99.90;;;;;;5006266;28;19929;-72
2023/10/25 01:32:20;;;;;;;;;;;7.00;99.90;;;;;;5005416;28;19929;-72
2023/10/25 01:34:47;;;;;;;;;;;7.00;99.90;;;;;;5007083;28;19930;-72
2023/10/25 01:37:14;;;;;;;;;;;7.00;99.90;;;;;;5005436;28;19964;-72
2023/10/25 01:39:42;;;;;;;;;;;6.90;99.90;;;;;;5009728;28;19947;-72
2023/10/25 01:42:09;;;;;;;;;;;7.00;99.90;;;;;;5010016;28;20629;-72
2023/10/25 01:44:35;;;;;;;;;;;7.00;99.90;;;;;;5010006;28;19980;-72
2023/10/25 01:47:02;;;;;;;;;;;7.00;99.90;;;;;;5009193;28;19929;-72
2023/10/25 01:49:28;;;;;;;;;;;7.10;99.90;;;;;;5010020;28;19926;-72
2023/10/25 01:51:55;;;;;;;;;;;7.10;99.90;;;;;;5009206;28;19979;-72
2023/10/25 01:54:21;;;;;;;;;;;7.10;99.90;;;;;;5009910;28;19932;-72
2023/10/25 01:56:49;;;;;;;;;;;7.00;99.90;;;;;;5009193;28;20350;-72
2023/10/25 01:59:15;;;;;;;;;;;7.00;99.90;;;;;;5008594;28;19926;-72
2023/10/25 02:01:42;;;;;;;;;;;7.00;99.90;;;;;;5008650;28;20443;-72
2023/10/25 02:04:09;;;;;;;;;;;7.00;99.90;;;;;;5010441;28;19976;-72
2023/10/25 02:06:35;;;;;;;;;;;7.10;99.90;;;;;;5008185;28;20461;-72
2023/10/25 02:09:02;;;;;;;;;;;7.10;99.90;;;;;;5009983;28;19980;-72
2023/10/25 02:11:29;;;;;;;;;;;7.10;99.90;;;;;;5009141;28;19933;-72
2023/10/25 02:13:58;;;;;;;;;;;7.10;99.90;;;;;;5009622;28;20060;-72
2023/10/25 02:16:26;;;;;;;;;;;7.10;99.90;;;;;;5008479;28;19925;-72
2023/10/25 02:18:52;;;;;;;;;;;7.00;99.90;;;;;;5009608;28;19941;-72
2023/10/25 02:21:19;;;;;;;;;;;7.00;99.90;;;;;;5009162;28;20456;-72
2023/10/25 02:23:45;;;;;;;;;;;7.00;99.90;;;;;;5008997;28;19972;-73
2023/10/25 02:26:12;;;;;;;;;;;7.00;99.90;;;;;;5009219;28;19929;-72
2023/10/25 02:28:38;;;;;;;;;;;7.00;99.90;;;;;;5008695;28;20004;-72
2023/10/25 02:31:06;;;;;;;;;;;6.90;99.90;;;;;;5008890;28;19979;-72
2023/10/25 02:33:33;;;;;;;;;;;6.90;99.90;;;;;;5008832;28;19925;-72
2023/10/25 02:35:59;;;;;;;;;;;6.90;99.90;;;;;;5008522;28;19925;-72
2023/10/25 02:38:26;;;;;;;;;;;6.90;99.90;;;;;;5008707;28;19933;-72
2023/10/25 02:40:52;;;;;;;;;;;6.90;99.90;;;;;;5008692;28;19933;-73
2023/10/25 02:43:19;;;;;;;;;;;6.90;99.90;;;;;;5008829;28;19930;-72
2023/10/25 02:45:45;;;;;;;;;;;6.90;99.90;;;;;;5007071;28;19925;-72
2023/10/25 02:48:13;;;;;;;;;;;6.90;99.90;;;;;;5008169;28;19929;-72
2023/10/25 02:50:40;;;;;;;;;;;6.90;99.90;;;;;;5008265;28;19926;-72
2023/10/25 02:53:06;;;;;;;;;;;6.90;99.90;;;;;;5009092;28;20016;-72
2023/10/25 02:55:34;;;;;;;;;;;6.90;99.90;;;;;;5008559;28;20089;-72
2023/10/25 02:58:00;;;;;;;;;;;7.00;99.90;;;;;;5007528;28;20013;-72
2023/10/25 03:00:27;;;;;;;;;;;7.00;99.90;;;;;;5008692;28;20424;-72
2023/10/25 03:02:53;;;;;;;;;;;7.00;99.90;;;;;;5008600;28;20003;-72
2023/10/25 03:05:21;;;;;;;;;;;7.10;99.90;;;;;;5007902;28;20408;-72
2023/10/25 03:07:48;;;;;;;;;;;7.00;99.90;;;;;;5007681;28;19936;-72
2023/10/25 03:10:15;;;;;;;;;;;7.10;99.90;;;;;;5007795;28;20511;-72
2023/10/25 03:12:41;;;;;;;;;;;7.10;99.90;;;;;;5007630;28;20454;-72
2023/10/25 03:15:08;;;;;;;;;;;7.10;99.90;;;;;;5008178;28;19945;-72
2023/10/25 03:17:34;;;;;;;;;;;7.10;99.90;;;;;;5006473;28;19934;-72
2023/10/25 03:20:04;;;;;;;;;;;7.10;99.90;;;;;;5008073;28;19953;-73
2023/10/25 03:22:32;;;;;;;;;;;7.10;99.90;;;;;;5007921;28;19925;-72
2023/10/25 03:24:58;;;;;;;;;;;7.10;99.90;;;;;;5008200;28;19925;-72
2023/10/25 03:27:25;;;;;;;;;;;7.20;99.90;;;;;;5007343;28;20347;-73
2023/10/25 03:29:51;;;;;;;;;;;6.90;99.90;;;;;;5008124;28;19979;-72
2023/10/25 03:32:18;;;;;;;;;;;7.30;99.90;;;;;;5007610;28;20392;-72
2023/10/25 03:34:44;;;;;;;;;;;7.30;99.90;;;;;;5007525;28;19925;-72
2023/10/25 03:37:11;;;;;;;;;;;7.30;99.90;;;;;;5006838;28;19925;-72
2023/10/25 03:39:39;;;;;;;;;;;7.30;99.90;;;;;;5007355;28;20383;-72
2023/10/25 03:42:05;;;;;;;;;;;7.30;99.90;;;;;;5007262;28;19929;-72
2023/10/25 03:44:32;;;;;;;;;;;7.40;99.90;;;;;;5007069;28;19933;-72
2023/10/25 03:46:58;;;;;;;;;;;7.40;99.90;;;;;;5005939;28;19933;-73
2023/10/25 03:49:25;;;;;;;;;;;7.40;99.90;;;;;;5006927;28;19929;-72
2023/10/25 03:51:52;;;;;;;;;;;7.40;99.90;;;;;;5007658;28;20028;-72
2023/10/25 03:54:20;;;;;;;;;;;7.40;99.90;;;;;;5007163;28;21294;-72
2023/10/25 03:56:48;;;;;;;;;;;7.40;99.90;;;;;;5006390;28;19937;-72
2023/10/25 03:59:15;;;;;;;;;;;7.40;99.90;;;;;;5007097;28;20003;-72
2023/10/25 04:01:41;;;;;;;;;;;7.50;99.90;;;;;;5004098;28;19937;-72
2023/10/25 04:04:09;;;;;;;;;;;7.50;99.90;;;;;;5007161;28;19926;-72
2023/10/25 04:06:36;;;;;;;;;;;7.50;99.90;;;;;;5005948;28;19938;-72
2023/10/25 04:09:02;;;;;;;;;;;7.50;99.90;;;;;;5006593;28;20048;-72
2023/10/25 04:11:29;;;;;;;;;;;7.50;99.90;;;;;;5007971;28;19925;-72
2023/10/25 04:13:57;;;;;;;;;;;7.60;99.90;;;;;;5007279;28;20044;-73
2023/10/25 04:16:23;;;;;;;;;;;7.50;99.90;;;;;;5006332;28;19926;-72
2023/10/25 04:18:50;;;;;;;;;;;7.50;99.90;;;;;;5006742;28;19997;-72
2023/10/25 04:21:16;;;;;;;;;;;7.50;99.90;;;;;;5006416;28;19971;-72
2023/10/25 04:23:43;;;;;;;;;;;7.40;99.90;;;;;;5006992;28;19925;-72
2023/10/25 04:26:10;;;;;;;;;;;7.40;99.90;;;;;;5006870;28;19926;-72
2023/10/25 04:28:37;;;;;;;;;;;7.40;99.90;;;;;;5006423;28;19972;-72
2023/10/25 04:31:07;;;;;;;;;;;7.50;99.90;;;;;;5006904;28;19925;-72
2023/10/25 04:33:33;;;;;;;;;;;7.50;99.90;;;;;;5006474;28;19976;-72
2023/10/25 04:36:00;;;;;;;;;;;7.50;99.90;;;;;;5007065;28;19940;-72
2023/10/25 04:38:26;;;;;;;;;;;7.40;99.90;;;;;;5005792;28;19987;-72
2023/10/25 04:40:53;;;;;;;;;;;7.40;99.90;;;;;;5006612;28;20411;-72
2023/10/25 04:43:19;;;;;;;;;;;7.40;99.90;;;;;;5005686;28;19979;-73
2023/10/25 04:45:46;;;;;;;;;;;7.30;99.90;;;;;;5005906;28;19925;-72
2023/10/25 04:48:14;;;;;;;;;;;7.20;99.90;;;;;;5006170;28;19984;-72
2023/10/25 04:50:40;;;;;;;;;;;7.20;99.90;;;;;;5006634;28;19987;-73
2023/10/25 04:53:07;;;;;;;;;;;7.10;99.90;;;;;;5006737;28;19972;-72
2023/10/25 04:55:34;;;;;;;;;;;7.10;99.90;;;;;;5006500;28;20351;-72
2023/10/25 04:58:01;;;;;;;;;;;7.00;99.90;;;;;;5006649;28;19931;-72
2023/10/25 05:00:28;;;;;;;;;;;6.90;99.90;;;;;;5008882;28;19925;-72
2023/10/25 05:02:54;;;;;;;;;;;6.90;99.90;;;;;;5011251;28;19925;-72
2023/10/25 05:05:22;;;;;;;;;;;6.90;99.90;;;;;;5011427;28;19926;-73
2023/10/25 05:07:49;;;;;;;;;;;6.80;99.90;;;;;;5016801;28;19933;-73
2023/10/25 05:10:16;;;;;;;;;;;6.80;99.90;;;;;;5011462;28;19929;-73
2023/10/25 05:12:44;;;;;;;;;;;6.70;99.90;;;;;;5016423;28;19925;-73
2023/10/25 05:15:11;;;;;;;;;;;6.60;99.90;;;;;;5014724;28;19929;-73
2023/10/25 05:17:38;;;;;;;;;;;6.60;99.90;;;;;;5015780;28;20041;-73
2023/10/25 05:20:06;;;;;;;;;;;6.60;99.90;;;;;;5015549;28;19980;-72
2023/10/25 05:22:36;;;;;;;;;;;6.60;99.90;;;;;;5015507;28;20303;-73
2023/10/25 05:25:02;;;;;;;;;;;6.60;99.90;;;;;;5015929;28;19926;-72
2023/10/25 05:27:29;;;;;;;;;;;6.60;99.90;;;;;;5014938;28;19933;-72
2023/10/25 05:29:59;;;;;;;;;;;6.60;99.90;;;;;;5014982;28;20016;-72
2023/10/25 05:32:26;;;;;;;;;;;6.70;99.90;;;;;;5015187;28;20288;-72
2023/10/25 05:34:53;;;;;;;;;;;6.70;99.90;;;;;;5014852;28;19985;-72
2023/10/25 05:37:20;;;;;;;;;;;6.60;99.90;;;;;;5018163;28;19963;-73
2023/10/25 05:39:48;;;;;;;;;;;6.60;99.90;;;;;;5014647;28;19980;-73
2023/10/25 05:42:18;;;;;;;;;;;6.60;99.90;;;;;;5014952;28;19925;-73
2023/10/25 05:44:44;;;;;;;;;;;6.60;99.90;;;;;;5013860;28;19930;-72
2023/10/25 05:47:11;;;;;;;;;;;6.60;99.90;;;;;;5014558;28;19937;-73
2023/10/25 05:49:38;;;;;;;;;;;6.60;99.90;;;;;;5014620;28;19925;-73
2023/10/25 05:52:05;;;;;;;;;;;6.60;99.90;;;;;;5015005;28;19925;-72
2023/10/25 05:54:32;;;;;;;;;;;6.60;99.90;;;;;;5014540;28;19968;-72
2023/10/25 05:57:00;;;;;;;;;;;6.60;99.90;;;;;;5007909;28;19929;-72
2023/10/25 05:59:27;;;;;;;;;;;6.60;99.90;;;;;;5014630;28;19973;-71
2023/10/25 06:02:01;;;;;;;;;;;6.60;99.90;;;;;;5013759;28;19960;-72
2023/10/25 06:04:30;;;;;;;;;;;6.70;99.90;;;;;;5014438;28;19929;-72
2023/10/25 06:06:57;;;;;;;;;;;6.70;99.90;;;;;;5014308;28;20446;-72
2023/10/25 06:09:24;;;;;;;;;;;6.80;99.90;;;;;;5014219;28;20387;-72
2023/10/25 06:11:50;;;;;;;;;;;6.80;99.90;;;;;;5014419;28;19929;-72
2023/10/25 06:14:19;;;;;;;;;;;6.90;99.90;;;;;;5014099;28;20292;-72
2023/10/25 06:16:46;;;;;;;;;;;7.00;99.90;;;;;;5013904;28;19929;-72
2023/10/25 06:19:13;;;;;;;;;;;7.00;99.90;;;;;;5014410;28;19925;-72
2023/10/25 06:21:40;;;;;;;;;;;7.10;99.90;;;;;;5014073;28;19987;-71
2023/10/25 06:24:07;;;;;;;;;;;7.10;99.90;;;;;;5012787;28;19925;-72
2023/10/25 06:26:33;;;;;;;;;;;7.20;99.90;;;;;;5013872;28;19995;-72
2023/10/25 06:29:00;;;;;;;;;;;7.30;99.90;;;;;;5013929;28;19930;-73
2023/10/25 06:31:28;;;;;;;;;;;7.40;99.90;;;;;;5013696;28;20387;-72
2023/10/25 06:33:54;;;;;;;;;;;7.60;99.90;;;;;;5013992;28;19926;-73
2023/10/25 06:36:21;;;;;;;;;;;7.70;99.90;;;;;;5013575;28;19929;-72
2023/10/25 06:38:48;;;;;;;;;;;7.80;99.90;;;;;;5013545;28;19925;-72
2023/10/25 06:41:14;;;;;;;;;;;7.80;99.90;;;;;;5013800;28;19925;-72
2023/10/25 06:43:41;;;;;;;;;;;7.90;99.90;;;;;;5013777;28;19933;-72
2023/10/25 06:46:08;;;;;;;;;;;7.90;99.90;;;;;;5013207;28;19995;-72
2023/10/25 06:48:36;;;;;;;;;;;7.90;99.90;;;;;;5012933;28;19925;-72
2023/10/25 06:51:05;;;;;;;;;;;7.90;99.90;;;;;;5013587;28;19925;-72
2023/10/25 06:53:32;;;;;;;;;;;7.90;99.90;;;;;;5013344;28;19933;-72
2023/10/25 06:55:59;;;;;;;;;;;7.90;99.90;;;;;;5013609;28;20346;-72
2023/10/25 06:58:25;;;;;;;;;;;8.00;99.90;;;;;;5013345;28;19979;-72
2023/10/25 07:00:53;;;;;;;;;;;8.00;99.90;;;;;;5013342;28;19926;-73
2023/10/25 07:03:24;;;;;;;;;;;8.00;99.90;;;;;;5013344;28;19925;-72
2023/10/25 07:05:52;;;;;;;;;;;8.00;99.90;;;;;;5012819;28;19934;-72
2023/10/25 07:08:21;;;;;;;;;;;8.00;99.90;;;;;;5013113;28;20048;-72
2023/10/25 07:10:48;;;;;;;;;;;8.10;99.90;;;;;;5012829;28;19931;-72
2023/10/25 07:13:14;;;;;;;;;;;8.10;99.90;;;;;;5013166;28;20384;-72
2023/10/25 07:15:41;;;;;;;;;;;8.10;99.90;;;;;;5012882;28;19976;-72
2023/10/25 07:18:07;;;;;;;;;;;8.10;99.90;;;;;;5012924;28;20454;-72
2023/10/25 07:20:34;;;;;;;;;;;8.10;99.90;;;;;;5012786;28;19956;-72
2023/10/25 07:23:02;;;;;;;;;;;8.10;99.90;;;;;;5013153;28;19999;-72
2023/10/25 07:25:28;;;;;;;;;;;8.10;99.90;;;;;;5012895;28;20299;-72
2023/10/25 07:27:55;;;;;;;;;;;8.10;99.90;;;;;;5012493;28;20628;-73
2023/10/25 07:30:21;;;;;;;;;;;8.10;99.90;;;;;;5012894;28;20355;-72
2023/10/25 07:32:48;;;;;;;;;;;8.10;99.90;;;;;;5011333;28;19932;-72
2023/10/25 07:35:14;;;;;;;;;;;8.10;99.90;;;;;;5012708;28;19929;-72
2023/10/25 07:37:41;;;;;;;;;;;8.10;99.90;;;;;;5012023;28;19929;-72
2023/10/25 07:40:10;;;;;;;;;;;8.10;99.90;;;;;;5012952;28;19925;-72
2023/10/25 07:42:36;;;;;;;;;;;8.20;99.90;;;;;;5012189;28;19925;-72
2023/10/25 07:45:03;;;;;;;;;;;8.20;99.90;;;;;;5012673;28;19929;-72
2023/10/25 07:47:30;;;;;;;;;;;8.20;99.90;;;;;;5011763;28;19926;-72
2023/10/25 07:49:56;;;;;;;;;;;8.20;99.90;;;;;;5012578;28;20370;-73
2023/10/25 07:52:25;;;;;;;;;;;8.20;99.90;;;;;;5012591;28;19929;-73
2023/10/25 07:54:51;;;;;;;;;;;8.20;99.90;;;;;;5012556;28;19979;-72
2023/10/25 07:57:19;;;;;;;;;;;8.20;99.90;;;;;;5011917;28;20391;-73
2023/10/25 07:59:46;;;;;;;;;;;8.20;99.90;;;;;;5012055;28;20439;-73
2023/10/25 08:02:12;;;;;;;;;;;8.30;99.90;;;;;;5012238;28;20346;-72
2023/10/25 08:04:39;;;;;;;;;;;8.30;99.90;;;;;;5012301;28;19929;-72
2023/10/25 08:07:05;;;;;;;;;;;8.30;99.90;;;;;;5011830;28;20411;-73
2023/10/25 08:09:32;;;;;;;;;;;8.30;99.90;;;;;;5012227;28;19929;-72
2023/10/25 08:11:59;;;;;;;;;;;8.30;99.90;;;;;;5005874;28;20391;-73
2023/10/25 08:14:26;;;;;;;;;;;8.30;99.90;;;;;;5012022;28;19925;-73
2023/10/25 08:16:53;;;;;;;;;;;8.30;99.90;;;;;;5012005;28;20004;-73
2023/10/25 08:19:19;;;;;;;;;;;8.30;99.90;;;;;;5012340;28;19930;-73
2023/10/25 08:21:46;;;;;;;;;;;8.20;99.90;;;;;;5011830;28;19926;-73
2023/10/25 08:24:12;;;;;;;;;;;8.30;99.90;;;;;;5012241;28;19972;-72
2023/10/25 08:26:40;;;;;;;;;;;8.30;99.90;;;;;;5011544;28;19995;-73
2023/10/25 08:29:06;;;;;;;;;;;8.30;99.90;;;;;;5011807;28;20308;-73
2023/10/25 08:31:34;;;;;;;;;;;8.30;99.90;;;;;;5011828;28;19925;-73
2023/10/25 08:34:01;;;;;;;;;;;8.30;99.90;;;;;;5012040;28;20402;-73
2023/10/25 08:36:28;;;;;;;;;;;8.30;99.90;;;;;;5011603;28;19932;-73
2023/10/25 08:38:55;;;;;;;;;;;8.30;99.90;;;;;;5011738;28;19925;-73
2023/10/25 08:41:24;;;;;;;;;;;8.30;99.90;;;;;;5011402;28;20466;-73
2023/10/25 08:43:52;;;;;;;;;;;8.20;99.90;;;;;;5011766;28;19984;-73
2023/10/25 08:46:19;;;;;;;;;;;8.20;99.90;;;;;;5011428;28;19929;-73
2023/10/25 08:48:50;;;;;;;;;;;8.20;99.90;;;;;;5010780;28;19926;-73
2023/10/25 08:51:16;;;;;;;;;;;8.10;99.90;;;;;;5011639;28;19991;-72
2023/10/25 08:53:43;;;;;;;;;;;8.20;99.90;;;;;;5011708;28;19953;-73
2023/10/25 08:56:09;;;;;;;;;;;8.30;99.90;;;;;;5011305;28;20349;-73
2023/10/25 08:58:36;;;;;;;;;;;8.50;99.90;;;;;;5011347;28;19925;-73
2023/10/25 09:01:03;;;;;;;;;;;8.70;99.90;;;;;;5011560;28;19929;-73
2023/10/25 09:03:39;;;;;;;;;;;8.80;99.90;;;;;;5011650;28;19925;-73
2023/10/25 09:06:08;;;;;;;;;;;8.70;99.90;;;;;;5008492;28;19925;-73
2023/10/25 09:08:34;;;;;;;;;;;8.70;99.90;;;;;;5011015;28;19925;-73
2023/10/25 09:11:02;;;;;;;;;;;8.80;99.90;;;;;;5011684;28;19937;-73
2023/10/25 09:13:29;;;;;;;;;;;8.80;99.90;;;;;;5011462;28;20437;-73
2023/10/25 09:16:02;;;;;;;;;;;8.80;99.90;;;;;;5011340;28;20391;-73
2023/10/25 09:18:29;;;;;;;;;;;8.80;99.90;;;;;;5010968;28;20008;-72
2023/10/25 09:20:55;;;;;;;;;;;8.80;99.90;;;;;;5011273;28;19937;-73
2023/10/25 09:23:23;;;;;;;;;;;8.80;99.90;;;;;;5010953;28;20380;-73
2023/10/25 09:25:50;;;;;;;;;;;8.80;99.90;;;;;;5011341;28;19926;-74
2023/10/25 09:28:26;;;;;;;;;;;8.90;99.90;;;;;;5011128;28;20029;-73
2023/10/25 09:30:53;;;;;;;;;;;8.90;99.90;;;;;;5010755;28;19934;-72
2023/10/25 09:33:20;;;;;;;;;;;9.00;99.90;;;;;;5011097;28;19932;-73
2023/10/25 09:35:46;;;;;;;;;;;9.00;99.90;;;;;;5010898;28;19933;-73
2023/10/25 09:38:13;;;;;;;;;;;9.10;99.90;;;;;;5011319;28;19930;-73
2023/10/25 09:40:43;;;;;;;;;;;9.10;99.90;;;;;;5011203;28;19933;-72
2023/10/25 09:43:14;;;;;;;;;;;9.20;99.90;;;;;;5011410;28;20366;-72
2023/10/25 09:45:41;;;;;;;;;;;9.20;99.90;;;;;;5010330;28;20461;-72
2023/10/25 09:48:10;;;;;;;;;;;9.30;99.90;;;;;;5010529;28;19947;-73
2023/10/25 09:50:38;;;;;;;;;;;9.30;99.90;;;;;;5011285;28;19925;-73
2023/10/25 09:53:08;;;;;;;;;;;9.30;99.90;;;;;;5011416;28;19926;-72
2023/10/25 09:55:35;;;;;;;;;;;9.40;99.90;;;;;;5010946;28;19925;-73
2023/10/25 09:58:03;;;;;;;;;;;9.40;99.90;;;;;;5010693;28;20376;-73
2023/10/25 10:00:30;;;;;;;;;;;9.40;99.90;;;;;;5014215;28;19926;-73
2023/10/25 10:03:00;;;;;;;;;;;9.40;99.90;;;;;;5014403;28;19995;-73
2023/10/25 10:05:30;;;;;;;;;;;9.40;99.90;;;;;;5014896;28;19933;-72
2023/10/25 10:08:03;;;;;;;;;;;9.50;99.90;;;;;;5014088;28;19925;-73
2023/10/25 10:10:32;;;;;;;;;;;9.40;99.90;;;;;;5014535;28;19948;-73
2023/10/25 10:12:59;;;;;;;;;;;9.50;99.90;;;;;;5010615;28;19925;-73
2023/10/25 10:15:51;;;;;;;;;;;9.60;99.90;;;;;;5013487;28;19980;-72
2023/10/25 10:18:19;;;;;;;;;;;9.60;99.90;;;;;;5009327;28;19996;-73
2023/10/25 10:20:58;;;;;;;;;;;9.70;99.90;;;;;;5014240;28;19925;-73
2023/10/25 10:23:33;;;;;;;;;;;9.70;99.90;;;;;;5014251;28;19929;-73
2023/10/25 10:26:01;;;;;;;;;;;9.70;99.90;;;;;;5010036;28;19933;-72
2023/10/25 10:28:37;;;;;;;;;;;9.80;99.90;;;;;;5013957;28;19971;-73
2023/10/25 10:31:06;;;;;;;;;;;9.80;99.90;;;;;;5013853;28;20008;-72
2023/10/25 10:33:34;;;;;;;;;;;9.70;99.90;;;;;;5014207;28;19929;-72
2023/10/25 10:36:01;;;;;;;;;;;9.80;99.90;;;;;;5011360;28;19926;-73
2023/10/25 10:38:27;;;;;;;;;;;9.80;99.90;;;;;;5013270;28;19929;-73
2023/10/25 10:41:01;;;;;;;;;;;9.80;99.90;;;;;;5014106;28;19925;-73
2023/10/25 10:43:28;;;;;;;;;;;9.80;99.90;;;;;;5013428;28;20412;-72
2023/10/25 10:45:55;;;;;;;;;;;9.80;99.90;;;;;;5013830;28;19932;-73
2023/10/25 10:48:28;;;;;;;;;;;9.80;99.90;;;;;;5013237;28;19925;-73
2023/10/25 10:50:55;;;;;;;;;;;9.90;99.90;;;;;;5013812;28;20380;-72
2023/10/25 10:53:22;;;;;;;;;;;9.90;99.90;;;;;;5014333;28;19925;-73
2023/10/25 10:55:49;;;;;;;;;;;10.00;99.90;;;;;;5013636;28;19929;-73
2023/10/25 10:58:17;;;;;;;;;;;10.10;99.90;;;;;;5012117;28;19926;-73
2023/10/25 11:00:45;;;;;;;;;;;10.10;99.90;;;;;;5013599;28;20294;-73
2023/10/25 11:03:12;;;;;;;;;;;10.20;99.90;;;;;;5013139;28;19926;-73
2023/10/25 11:05:39;;;;;;;;;;;10.20;99.90;;;;;;5013905;28;19925;-73
2023/10/25 11:08:09;;;;;;;;;;;10.20;99.90;;;;;;5006994;28;19929;-73
2023/10/25 11:10:36;;;;;;;;;;;10.20;99.90;;;;;;5012928;28;19929;-73
2023/10/25 11:13:06;;;;;;;;;;;10.30;99.90;;;;;;5013447;28;19929;-73
2023/10/25 11:15:33;;;;;;;;;;;10.30;99.90;;;;;;5013455;28;19934;-74
2023/10/25 11:18:00;;;;;;;;;;;10.30;99.90;;;;;;5012497;28;19933;-73
2023/10/25 11:20:27;;;;;;;;;;;10.40;99.90;;;;;;5013575;28;19968;-73
2023/10/25 11:22:55;;;;;;;;;;;10.40;99.90;;;;;;5012998;28;19934;-73
2023/10/25 11:25:21;;;;;;;;;;;10.40;99.90;;;;;;5013008;28;20358;-73
2023/10/25 11:27:48;;;;;;;;;;;10.40;99.90;;;;;;5012704;28;19949;-72
2023/10/25 11:30:14;;;;;;;;;;;10.40;99.90;;;;;;5012723;28;19925;-73
2023/10/25 11:32:42;;;;;;;;;;;10.50;99.90;;;;;;5013022;28;19977;-73
2023/10/25 11:35:20;;;;;;;;;;;10.50;99.90;;;;;;5013294;28;20008;-72
2023/10/25 11:37:46;;;;;;;;;;;10.50;99.90;;;;;;5012272;28;20470;-73
2023/10/25 11:40:14;;;;;;;;;;;10.50;99.90;;;;;;5012627;28;19929;-73
2023/10/25 11:42:42;;;;;;;;;;;10.50;99.90;;;;;;5012463;28;19925;-73
2023/10/25 11:45:09;;;;;;;;;;;10.50;99.90;;;;;;5012476;28;20426;-72
2023/10/25 11:47:37;;;;;;;;;;;10.50;99.90;;;;;;5012216;28;19937;-72
2023/10/25 11:50:04;;;;;;;;;;;10.50;99.90;;;;;;5012935;28;19952;-73
2023/10/25 11:52:31;;;;;;;;;;;10.50;99.90;;;;;;5012720;28;19971;-72
2023/10/25 11:54:59;;;;;;;;;;;10.50;99.90;;;;;;5012293;28;19958;-73
2023/10/25 11:57:27;;;;;;;;;;;10.50;99.90;;;;;;5011767;28;19980;-73
2023/10/25 11:59:54;;;;;;;;;;;10.50;99.90;;;;;;5012657;28;19971;-73
2023/10/25 12:02:21;;;;;;;;;;;10.50;99.90;;;;;;5012382;28;20376;-72
2023/10/25 12:04:48;;;;;;;;;;;10.50;99.90;;;;;;5012412;28;19932;-73
2023/10/25 12:07:14;;;;;;;;;;;10.50;99.90;;;;;;5011913;28;19925;-73
2023/10/25 12:09:42;;;;;;;;;;;10.60;99.90;;;;;;5010193;28;19930;-73
2023/10/25 12:12:09;;;;;;;;;;;10.60;99.90;;;;;;5012360;28;19932;-72
2023/10/25 12:14:37;;;;;;;;;;;10.60;99.90;;;;;;5012380;28;19977;-73
2023/10/25 12:17:05;;;;;;;;;;;10.60;99.90;;;;;;5012044;28;19933;-72
2023/10/25 12:19:32;;;;;;;;;;;10.60;99.90;;;;;;5012180;28;19937;-73
2023/10/25 12:21:59;;;;;;;;;;;10.50;99.90;;;;;;5011458;28;19972;-73
2023/10/25 12:24:25;;;;;;;;;;;10.50;99.90;;;;;;5007872;28;19925;-70
2023/10/25 12:26:52;;;;;;;;;;;10.50;99.90;;;;;;5011455;28;19979;-71
2023/10/25 12:29:18;;;;;;;;;;;10.50;99.90;;;;;;5011960;28;19987;-72
2023/10/25 12:31:46;;;;;;;;;;;10.50;99.90;;;;;;5011913;28;20073;-72
2023/10/25 12:34:13;;;;;;;;;;;10.60;99.90;;;;;;5012075;28;19971;-73
2023/10/25 12:36:39;;;;;;;;;;;10.50;99.90;;;;;;5011402;28;19925;-72
2023/10/25 12:39:06;;;;;;;;;;;10.50;99.90;;;;;;5011678;28;19925;-73
2023/10/25 12:41:33;;;;;;;;;;;10.60;99.90;;;;;;5011676;28;19929;-72
2023/10/25 12:44:01;;;;;;;;;;;10.60;99.90;;;;;;5007390;28;19972;-72
2023/10/25 12:46:28;;;;;;;;;;;10.60;99.90;;;;;;5011680;28;19933;-73
2023/10/25 12:48:55;;;;;;;;;;;10.60;99.90;;;;;;5011622;28;19929;-72
2023/10/25 12:51:22;;;;;;;;;;;10.60;99.90;;;;;;5011652;28;19953;-72
2023/10/25 12:53:48;;;;;;;;;;;10.60;99.90;;;;;;5011299;28;20411;-72
2023/10/25 12:56:15;;;;;;;;;;;10.50;99.90;;;;;;5011749;28;19953;-72
2023/10/25 12:58:42;;;;;;;;;;;10.60;99.90;;;;;;5011011;28;20343;-73
2023/10/25 13:01:09;;;;;;;;;;;10.60;99.90;;;;;;5011548;28;20387;-73
2023/10/25 13:03:35;;;;;;;;;;;10.60;99.90;;;;;;5011351;28;19925;-72
2023/10/25 13:06:04;;;;;;;;;;;10.60;99.90;;;;;;5011154;28;19952;-73
2023/10/25 13:08:30;;;;;;;;;;;10.70;99.90;;;;;;5011222;28;19968;-72
2023/10/25 13:10:57;;;;;;;;;;;10.70;99.90;;;;;;5011469;28;19926;-73
2023/10/25 13:13:24;;;;;;;;;;;10.70;99.90;;;;;;5011585;28;20311;-73
2023/10/25 13:15:50;;;;;;;;;;;10.70;99.90;;;;;;5011530;28;20356;-72
2023/10/25 13:18:17;;;;;;;;;;;10.70;99.90;;;;;;5010906;28;19925;-72
2023/10/25 13:20:43;;;;;;;;;;;10.70;99.90;;;;;;5010780;28;19932;-72
2023/10/25 13:23:11;;;;;;;;;;;10.70;99.90;;;;;;5011242;28;20443;-72
2023/10/25 13:25:38;;;;;;;;;;;10.70;99.90;;;;;;5011514;28;19929;-72
2023/10/25 13:28:04;;;;;;;;;;;10.60;99.90;;;;;;5011248;28;19933;-72
2023/10/25 13:30:31;;;;;;;;;;;10.60;99.90;;;;;;5011292;28;19925;-73
2023/10/25 13:32:57;;;;;;;;;;;10.70;99.90;;;;;;5012461;28;19926;-72
2023/10/25 13:35:24;;;;;;;;;;;10.70;99.90;;;;;;5014798;28;19933;-73
2023/10/25 13:37:50;;;;;;;;;;;10.70;99.90;;;;;;5014380;28;19926;-73
2023/10/25 13:40:18;;;;;;;;;;;10.70;99.90;;;;;;5014960;28;19980;-73
2023/10/25 13:42:45;;;;;;;;;;;10.70;99.90;;;;;;5014678;28;20459;-73
2023/10/25 13:45:11;;;;;;;;;;;10.70;99.90;;;;;;5014775;28;20395;-73
2023/10/25 13:47:39;;;;;;;;;;;10.70;99.90;;;;;;5014262;28;20446;-73
2023/10/25 13:50:06;;;;;;;;;;;10.70;99.90;;;;;;5014975;28;20015;-73
2023/10/25 13:52:32;;;;;;;;;;;10.80;99.90;;;;;;5014955;28;19933;-72
2023/10/25 13:54:59;;;;;;;;;;;10.80;99.90;;;;;;5014298;28;19933;-72
2023/10/25 13:57:27;;;;;;;;;;;10.80;99.90;;;;;;5014596;28;20400;-73
2023/10/25 13:59:53;;;;;;;;;;;10.80;99.90;;;;;;5014675;28;19941;-73
2023/10/25 14:02:20;;;;;;;;;;;10.80;99.90;;;;;;5014539;28;19926;-73
2023/10/25 14:04:46;;;;;;;;;;;10.80;99.90;;;;;;5013885;28;19933;-73
2023/10/25 14:07:13;;;;;;;;;;;10.80;99.90;;;;;;5014572;28;19972;-72
2023/10/25 14:09:40;;;;;;;;;;;10.90;99.90;;;;;;5014296;28;19929;-73
2023/10/25 14:12:07;;;;;;;;;;;10.90;99.90;;;;;;5014756;28;19926;-72
2023/10/25 14:14:35;;;;;;;;;;;10.90;99.90;;;;;;5014207;28;19930;-73
2023/10/25 14:17:01;;;;;;;;;;;11.00;99.90;;;;;;5013619;28;19929;-73
2023/10/25 14:19:28;;;;;;;;;;;11.00;99.90;;;;;;5014599;28;19925;-73
2023/10/25 14:21:55;;;;;;;;;;;11.00;99.90;;;;;;5014432;28;19926;-72
2023/10/25 14:24:21;;;;;;;;;;;11.00;99.90;;;;;;5013967;28;20410;-73
2023/10/25 14:26:48;;;;;;;;;;;11.00;99.90;;;;;;5013866;28;20502;-72